createdAt,value
2022-12-19T00:07:31.455Z,29.70
2022-12-19T00:12:46.587Z,30.10
2022-12-19T00:18:35.015Z,30.50
2022-12-19T00:23:46.164Z,32.10
2022-12-19T00:28:57.617Z,30.80
2022-12-19T00:34:03.358Z,31.60
2022-12-19T00:39:08.824Z,31.40
2022-12-19T00:51:09.646Z,33.50
2022-12-19T00:56:17.405Z,31.30
2022-12-19T01:01:38.061Z,32.50
2022-12-19T01:06:43.242Z,34.30
2022-12-19T01:12:30.842Z,30.10
2022-12-19T01:17:43.497Z,34.90
2022-12-19T01:22:58.544Z,36.00
2022-12-19T01:28:32.239Z,36.70
2022-12-19T01:34:42.626Z,35.50
2022-12-19T01:53:51.365Z,37.80
2022-12-19T02:05:54.854Z,29.40
2022-12-19T02:11:06.417Z,27.40
2022-12-19T02:22:35.890Z,30.40
2022-12-19T02:47:13.663Z,34.20
2022-12-19T02:53:30.497Z,29.00
2022-12-19T02:59:02.792Z,31.40
2022-12-19T03:09:12.804Z,27.80
2022-12-19T03:20:54.248Z,30.70
2022-12-19T03:26:29.257Z,31.20
2022-12-19T03:31:35.074Z,30.70
2022-12-19T03:36:43.319Z,29.50
2022-12-19T03:42:06.732Z,37.50
2022-12-19T03:47:17.735Z,31.20
2022-12-19T03:52:54.182Z,29.10
2022-12-19T03:58:06.531Z,26.70
2022-12-19T04:03:10.316Z,66.80
2022-12-19T04:08:14.406Z,29.80
2022-12-19T04:13:23.560Z,31.00
2022-12-19T04:18:28.020Z,29.90
2022-12-19T04:23:41.643Z,70.80
2022-12-19T04:28:52.982Z,36.20
2022-12-19T04:33:56.277Z,36.10
2022-12-19T04:38:59.641Z,35.10
2022-12-19T04:44:03.094Z,33.00
2022-12-19T04:49:06.540Z,30.40
2022-12-19T04:54:09.925Z,29.80
2022-12-19T04:59:13.720Z,32.40
2022-12-19T05:04:17.059Z,137.50
2022-12-19T05:09:20.599Z,35.40
2022-12-19T05:14:23.968Z,33.60
2022-12-19T05:19:27.422Z,31.10
2022-12-19T05:24:30.906Z,30.20
2022-12-19T05:29:35.050Z,31.60
2022-12-19T05:34:38.279Z,29.90
2022-12-19T05:39:41.640Z,30.40
2022-12-19T05:44:44.981Z,31.50
2022-12-19T05:49:48.256Z,29.50
2022-12-19T05:54:51.914Z,33.50
2022-12-19T06:00:00.226Z,34.30
2022-12-19T06:05:04.092Z,32.50
2022-12-19T06:10:10.007Z,33.70
2022-12-19T06:15:13.943Z,33.10
2022-12-19T06:20:18.194Z,30.00
2022-12-19T06:25:21.455Z,27.10
2022-12-19T06:30:24.812Z,29.40
2022-12-19T06:35:28.386Z,32.70
2022-12-19T06:40:50.359Z,32.50
2022-12-19T06:45:53.843Z,31.60
2022-12-19T06:50:57.241Z,30.10
2022-12-19T06:56:01.107Z,30.80
2022-12-19T07:01:04.791Z,32.50
2022-12-19T07:06:15.430Z,32.20
2022-12-19T07:11:19.029Z,33.20
2022-12-19T07:16:25.304Z,33.40
2022-12-19T07:21:29.762Z,33.50
2022-12-19T07:26:33.753Z,33.90
2022-12-19T07:31:40.287Z,33.50
2022-12-19T07:36:44.138Z,34.10
2022-12-19T07:41:47.899Z,34.70
2022-12-19T07:46:57.660Z,33.30
2022-12-19T07:52:01.064Z,34.20
2022-12-19T07:57:05.347Z,31.60
2022-12-19T08:02:18.084Z,31.90
2022-12-19T08:07:22.051Z,31.30
2022-12-19T08:12:25.335Z,32.60
2022-12-19T08:17:28.769Z,31.20
2022-12-19T08:22:32.270Z,33.60
2022-12-19T08:27:35.843Z,32.20
2022-12-19T08:32:39.034Z,33.10
2022-12-19T08:37:42.411Z,33.60
2022-12-19T08:42:46.109Z,34.30
2022-12-19T08:47:49.884Z,33.60
2022-12-19T08:52:53.360Z,32.30
2022-12-19T08:57:56.855Z,32.90
2022-12-19T09:03:00.272Z,34.90
2022-12-19T09:08:04.340Z,40.00
2022-12-19T09:13:08.978Z,37.40
2022-12-19T09:18:12.459Z,40.30
2022-12-19T09:23:15.801Z,39.90
2022-12-19T09:28:27.398Z,39.50
2022-12-19T09:33:37.997Z,41.00
2022-12-19T09:38:45.339Z,39.70
2022-12-19T09:43:51.151Z,39.50
2022-12-19T09:48:56.397Z,39.60
2022-12-19T09:54:33.392Z,37.00
2022-12-19T09:59:50.278Z,39.60
2022-12-19T10:05:13.841Z,38.10
2022-12-19T10:12:38.372Z,37.60
2022-12-19T10:16:05.599Z,37.80
2022-12-19T10:22:15.718Z,34.60
2022-12-19T10:27:16.395Z,48.20
2022-12-19T10:32:22.569Z,38.90
2022-12-19T10:37:37.650Z,38.40
2022-12-19T10:42:51.407Z,38.10
2022-12-19T10:47:58.797Z,37.70
2022-12-19T10:58:46.824Z,36.60
2022-12-19T11:03:56.634Z,36.00
2022-12-19T11:09:21.795Z,33.40
2022-12-19T11:17:41.567Z,35.50
2022-12-19T11:28:58.442Z,43.60
2022-12-19T11:29:46.779Z,36.00
2022-12-19T11:48:50.152Z,34.10
2022-12-19T11:54:24.415Z,34.60
2022-12-19T11:59:35.828Z,33.70
2022-12-19T12:05:23.303Z,34.30
2022-12-19T12:15:26.904Z,64.50
2022-12-19T12:30:11.680Z,31.70
2022-12-19T12:31:05.950Z,24.90
2022-12-19T12:31:43.768Z,30.40
2022-12-19T12:35:56.946Z,30.70
2022-12-19T12:44:08.599Z,30.00
2022-12-19T12:49:52.889Z,33.20
2022-12-19T12:55:01.300Z,32.20
2022-12-19T13:00:21.874Z,51.50
2022-12-19T13:05:46.195Z,33.10
2022-12-19T13:10:58.272Z,33.50
2022-12-19T13:16:42.824Z,32.00
2022-12-19T13:22:04.510Z,34.60
2022-12-19T13:27:19.778Z,34.70
2022-12-19T13:32:32.806Z,34.40
2022-12-19T13:39:57.712Z,37.40
2022-12-19T13:43:29.815Z,34.30
2022-12-19T13:49:00.777Z,35.00
2022-12-19T13:54:04.742Z,35.00
2022-12-19T13:59:10.084Z,36.20
2022-12-19T14:11:31.757Z,36.70
2022-12-19T14:15:32.651Z,36.40
2022-12-19T14:22:11.469Z,36.00
2022-12-19T14:28:20.123Z,34.70
2022-12-19T14:33:40.659Z,35.70
2022-12-19T14:39:20.406Z,37.30
2022-12-19T14:43:59.897Z,35.90
2022-12-19T14:54:12.028Z,35.90
2022-12-19T14:59:56.698Z,36.30
2022-12-19T15:05:14.360Z,36.00
2022-12-19T15:11:07.284Z,37.70
2022-12-19T15:16:01.501Z,37.40
2022-12-19T15:21:13.700Z,39.30
2022-12-19T15:26:26.522Z,43.50
2022-12-19T15:31:39.310Z,49.70
2022-12-19T15:36:43.500Z,50.70
2022-12-19T15:41:55.591Z,53.00
2022-12-19T15:47:05.486Z,56.30
2022-12-19T15:52:19.099Z,55.30
2022-12-19T15:57:39.970Z,53.80
2022-12-19T16:08:15.697Z,53.00
2022-12-19T16:13:32.102Z,55.50
2022-12-19T16:18:36.861Z,58.20
2022-12-19T16:28:48.142Z,56.50
2022-12-19T16:33:52.732Z,58.20
2022-12-19T16:38:59.259Z,58.00
2022-12-19T16:44:21.469Z,60.20
2022-12-19T16:49:25.856Z,56.10
2022-12-19T16:55:30.229Z,57.20
2022-12-19T17:00:18.413Z,55.40
2022-12-19T17:06:16.957Z,52.00
2022-12-19T17:11:11.926Z,60.60
2022-12-19T17:16:41.896Z,51.50
2022-12-19T17:21:59.226Z,55.50
2022-12-19T17:27:06.926Z,51.70
2022-12-19T17:32:23.733Z,60.70
2022-12-19T17:37:28.918Z,58.70
2022-12-19T17:42:40.211Z,60.30
2022-12-19T17:47:48.119Z,61.20
2022-12-19T17:52:52.151Z,64.30
2022-12-19T17:58:02.749Z,64.70
2022-12-19T18:03:25.061Z,68.40
2022-12-19T18:08:35.894Z,68.30
2022-12-19T18:13:39.813Z,67.70
2022-12-19T18:18:45.179Z,62.60
2022-12-19T18:23:49.457Z,66.90
2022-12-19T18:28:54.746Z,63.50
2022-12-19T18:34:07.302Z,145.20
2022-12-19T18:39:25.094Z,62.20
2022-12-19T18:44:28.840Z,70.50
2022-12-19T18:49:36.949Z,67.00
2022-12-19T18:54:40.818Z,63.00
2022-12-19T18:59:47.629Z,47.30
2022-12-19T19:04:51.743Z,63.60
2022-12-19T19:09:55.627Z,64.80
2022-12-19T19:15:23.103Z,96.70
2022-12-19T19:20:29.637Z,68.70
2022-12-19T19:25:35.439Z,69.40
2022-12-19T19:31:00.805Z,68.70
2022-12-19T19:36:13.049Z,81.90
2022-12-19T19:41:17.076Z,70.80
2022-12-19T19:46:22.633Z,71.90
2022-12-19T19:51:29.241Z,69.30
2022-12-19T19:56:42.581Z,90.60
2022-12-19T20:01:46.482Z,81.90
2022-12-19T20:06:53.948Z,80.10
2022-12-19T20:11:57.926Z,86.30
2022-12-19T20:17:01.804Z,84.40
2022-12-19T20:22:06.684Z,87.30
2022-12-19T20:27:13.908Z,79.60
2022-12-19T20:32:17.779Z,86.50
2022-12-19T20:37:20.947Z,86.80
2022-12-19T20:42:25.179Z,84.10
2022-12-19T20:47:28.840Z,87.70
2022-12-19T20:52:34.845Z,86.90
2022-12-19T20:57:39.040Z,85.50
2022-12-19T21:03:25.068Z,85.40
2022-12-19T21:08:07.308Z,87.50
2022-12-19T21:13:10.382Z,90.90
2022-12-19T21:18:13.485Z,86.20
2022-12-19T21:23:16.832Z,82.00
2022-12-19T21:28:21.685Z,88.70
2022-12-19T21:33:25.758Z,86.30
2022-12-19T21:38:28.970Z,81.80
2022-12-19T21:43:36.820Z,84.90
2022-12-19T21:48:42.715Z,82.70
2022-12-19T21:53:46.604Z,83.10
2022-12-19T21:58:55.857Z,80.90
2022-12-19T22:04:01.298Z,79.40
2022-12-19T22:09:07.374Z,78.40
2022-12-19T22:14:14.902Z,80.40
2022-12-19T22:19:19.190Z,82.60
2022-12-19T22:24:22.837Z,83.80
2022-12-19T22:29:26.035Z,79.20
2022-12-19T22:34:29.723Z,78.80
2022-12-19T22:39:33.068Z,80.80
2022-12-19T22:44:36.436Z,81.70
2022-12-19T22:49:39.597Z,77.10
2022-12-19T22:54:43.003Z,82.00
2022-12-19T22:59:46.172Z,78.00
2022-12-19T23:04:49.412Z,79.70
2022-12-19T23:09:52.676Z,81.10
2022-12-19T23:14:55.926Z,79.70
2022-12-19T23:19:59.271Z,83.80
2022-12-19T23:25:02.498Z,80.80
2022-12-19T23:30:06.380Z,80.80
2022-12-19T23:35:10.711Z,83.70
2022-12-19T23:40:16.176Z,84.30
2022-12-19T23:45:23.124Z,86.00
2022-12-19T23:50:31.302Z,85.00
2022-12-19T23:55:50.481Z,84.90
